sensor_id;sensor_type;location;lat;lon;timestamp;pressure;altitude;pressure_sealevel;temperature;humidity
62697;BME280;48761;42.680;23.312;2024-03-23T00:52:21;94849.22;;;8.26;54.87
62697;BME280;48761;42.680;23.312;2024-03-23T00:54:46;94848.25;;;8.27;54.99
62697;BME280;48761;42.680;23.312;2024-03-23T00:57:12;94843.25;;;8.22;55.18
62697;BME280;48761;42.680;23.312;2024-03-23T00:59:38;94838.63;;;8.11;55.26
62697;BME280;48761;42.680;23.312;2024-03-23T01:02:04;94839.00;;;8.19;55.69
62697;BME280;48761;42.680;23.312;2024-03-23T01:04:30;94842.22;;;8.25;54.98
62697;BME280;48761;42.680;23.312;2024-03-23T01:06:56;94838.34;;;8.01;55.60
62697;BME280;48761;42.680;23.312;2024-03-23T01:09:22;94838.88;;;7.92;56.20
62697;BME280;48761;42.680;23.312;2024-03-23T01:11:48;94833.00;;;7.87;56.51
62697;BME280;48761;42.680;23.312;2024-03-23T01:14:13;94829.81;;;7.50;57.52
62697;BME280;48761;42.680;23.312;2024-03-23T01:16:39;94830.34;;;7.87;56.64
62697;BME280;48761;42.680;23.312;2024-03-23T01:19:05;94827.16;;;7.96;56.15
62697;BME280;48761;42.680;23.312;2024-03-23T01:21:31;94834.44;;;7.92;55.92
62697;BME280;48761;42.680;23.312;2024-03-23T01:23:57;94835.34;;;7.91;55.93
62697;BME280;48761;42.680;23.312;2024-03-23T01:26:23;94836.88;;;7.81;56.60
62697;BME280;48761;42.680;23.312;2024-03-23T01:28:49;94845.19;;;7.89;56.34
62697;BME280;48761;42.680;23.312;2024-03-23T01:31:15;94839.47;;;7.66;56.96
62697;BME280;48761;42.680;23.312;2024-03-23T01:33:41;94839.59;;;7.79;56.49
62697;BME280;48761;42.680;23.312;2024-03-23T01:36:07;94838.94;;;7.76;56.52
62697;BME280;48761;42.680;23.312;2024-03-23T01:38:32;94837.22;;;7.74;56.93
62697;BME280;48761;42.680;23.312;2024-03-23T01:40:58;94829.88;;;7.80;56.57
62697;BME280;48761;42.680;23.312;2024-03-23T01:43:24;94838.34;;;7.39;57.72
62697;BME280;48761;42.680;23.312;2024-03-23T01:45:50;94833.66;;;7.76;56.77
62697;BME280;48761;42.680;23.312;2024-03-23T01:48:17;94826.47;;;7.78;56.47
62697;BME280;48761;42.680;23.312;2024-03-23T01:50:43;94835.06;;;7.81;56.66
62697;BME280;48761;42.680;23.312;2024-03-23T01:53:09;94831.06;;;7.74;56.60
62697;BME280;48761;42.680;23.312;2024-03-23T01:55:34;94837.47;;;7.86;56.17
62697;BME280;48761;42.680;23.312;2024-03-23T01:58:00;94824.81;;;7.60;56.48
62697;BME280;48761;42.680;23.312;2024-03-23T02:00:26;94837.78;;;7.65;56.32
62697;BME280;48761;42.680;23.312;2024-03-23T02:02:52;94838.53;;;7.67;56.44
62697;BME280;48761;42.680;23.312;2024-03-23T02:05:18;94835.00;;;7.83;56.02
62697;BME280;48761;42.680;23.312;2024-03-23T02:07:44;94834.84;;;7.70;56.43
62697;BME280;48761;42.680;23.312;2024-03-23T02:10:10;94841.19;;;7.67;56.28
62697;BME280;48761;42.680;23.312;2024-03-23T02:12:37;94840.03;;;7.71;56.21
62697;BME280;48761;42.680;23.312;2024-03-23T02:15:03;94837.94;;;7.62;56.20
62697;BME280;48761;42.680;23.312;2024-03-23T02:17:30;94836.16;;;7.62;56.28
62697;BME280;48761;42.680;23.312;2024-03-23T02:19:56;94844.97;;;7.63;56.11
62697;BME280;48761;42.680;23.312;2024-03-23T02:22:22;94843.78;;;7.53;56.68
62697;BME280;48761;42.680;23.312;2024-03-23T02:24:48;94847.78;;;7.60;56.57
62697;BME280;48761;42.680;23.312;2024-03-23T02:27:14;94845.69;;;7.50;56.35
62697;BME280;48761;42.680;23.312;2024-03-23T02:29:40;94847.38;;;7.51;56.47
62697;BME280;48761;42.680;23.312;2024-03-23T02:32:06;94840.88;;;7.57;56.15
62697;BME280;48761;42.680;23.312;2024-03-23T02:34:32;94856.06;;;7.54;56.61
62697;BME280;48761;42.680;23.312;2024-03-23T02:36:58;94843.78;;;7.53;56.44
62697;BME280;48761;42.680;23.312;2024-03-23T02:39:23;94854.72;;;7.46;56.95
62697;BME280;48761;42.680;23.312;2024-03-23T02:41:49;94841.91;;;7.55;56.93
62697;BME280;48761;42.680;23.312;2024-03-23T02:44:15;94843.09;;;7.49;56.72
62697;BME280;48761;42.680;23.312;2024-03-23T02:46:41;94839.56;;;7.34;57.16
62697;BME280;48761;42.680;23.312;2024-03-23T02:49:07;94845.22;;;7.27;57.35
62697;BME280;48761;42.680;23.312;2024-03-23T02:51:33;94845.22;;;7.27;57.61
62697;BME280;48761;42.680;23.312;2024-03-23T02:53:59;94830.56;;;6.89;58.48
62697;BME280;48761;42.680;23.312;2024-03-23T02:56:25;94835.50;;;6.95;58.66
62697;BME280;48761;42.680;23.312;2024-03-23T02:58:50;94836.69;;;6.57;59.71
62697;BME280;48761;42.680;23.312;2024-03-23T03:01:16;94833.91;;;6.77;59.59
62697;BME280;48761;42.680;23.312;2024-03-23T03:03:42;94835.34;;;6.82;59.50
62697;BME280;48761;42.680;23.312;2024-03-23T03:06:08;94843.03;;;6.87;59.18
62697;BME280;48761;42.680;23.312;2024-03-23T03:08:34;94839.75;;;6.98;59.23
62697;BME280;48761;42.680;23.312;2024-03-23T03:11:00;94834.31;;;7.01;59.05
62697;BME280;48761;42.680;23.312;2024-03-23T03:13:26;94830.75;;;7.02;58.49
62697;BME280;48761;42.680;23.312;2024-03-23T03:15:52;94835.50;;;7.28;58.01
62697;BME280;48761;42.680;23.312;2024-03-23T03:18:18;94840.72;;;6.97;58.87
62697;BME280;48761;42.680;23.312;2024-03-23T03:20:44;94844.78;;;7.03;58.50
62697;BME280;48761;42.680;23.312;2024-03-23T03:23:10;94835.59;;;6.94;58.69
62697;BME280;48761;42.680;23.312;2024-03-23T03:25:36;94843.25;;;6.99;58.77
62697;BME280;48761;42.680;23.312;2024-03-23T03:28:03;94841.66;;;6.96;58.74
62697;BME280;48761;42.680;23.312;2024-03-23T03:30:29;94840.13;;;6.92;58.70
62697;BME280;48761;42.680;23.312;2024-03-23T03:32:55;94841.31;;;7.02;58.27
62697;BME280;48761;42.680;23.312;2024-03-23T03:35:20;94845.56;;;7.05;58.24
62697;BME280;48761;42.680;23.312;2024-03-23T03:37:46;94844.72;;;6.88;58.86
62697;BME280;48761;42.680;23.312;2024-03-23T03:40:12;94847.44;;;6.87;58.84
62697;BME280;48761;42.680;23.312;2024-03-23T03:42:38;94844.53;;;6.91;58.85
62697;BME280;48761;42.680;23.312;2024-03-23T03:45:05;94836.88;;;6.87;58.74
62697;BME280;48761;42.680;23.312;2024-03-23T03:47:31;94835.34;;;6.82;59.12
62697;BME280;48761;42.680;23.312;2024-03-23T03:49:57;94841.13;;;6.73;59.21
62697;BME280;48761;42.680;23.312;2024-03-23T03:52:24;94838.59;;;6.03;61.44
62697;BME280;48761;42.680;23.312;2024-03-23T03:54:50;94839.00;;;5.42;64.71
62697;BME280;48761;42.680;23.312;2024-03-23T03:57:16;94848.69;;;5.42;64.86
62697;BME280;48761;42.680;23.312;2024-03-23T03:59:41;94842.34;;;4.91;66.88
62697;BME280;48761;42.680;23.312;2024-03-23T04:02:07;94849.06;;;5.16;66.68
62697;BME280;48761;42.680;23.312;2024-03-23T04:04:33;94846.38;;;5.18;66.53
62697;BME280;48761;42.680;23.312;2024-03-23T04:07:02;94843.28;;;5.27;66.19
62697;BME280;48761;42.680;23.312;2024-03-23T04:09:28;94842.81;;;5.90;64.31
62697;BME280;48761;42.680;23.312;2024-03-23T04:11:54;94848.94;;;5.37;65.32
62697;BME280;48761;42.680;23.312;2024-03-23T04:14:20;94841.53;;;5.26;65.96
62697;BME280;48761;42.680;23.312;2024-03-23T04:16:46;94845.47;;;4.99;66.53
62697;BME280;48761;42.680;23.312;2024-03-23T04:19:12;94850.25;;;4.71;67.95
62697;BME280;48761;42.680;23.312;2024-03-23T04:21:37;94856.94;;;4.79;67.50
62697;BME280;48761;42.680;23.312;2024-03-23T04:24:04;94849.69;;;4.84;66.89
62697;BME280;48761;42.680;23.312;2024-03-23T04:26:30;94852.88;;;4.91;66.76
62697;BME280;48761;42.680;23.312;2024-03-23T04:29:05;94853.47;;;4.98;66.53
62697;BME280;48761;42.680;23.312;2024-03-23T04:31:31;94857.44;;;4.68;66.66
62697;BME280;48761;42.680;23.312;2024-03-23T04:33:57;94856.53;;;4.69;67.33
62697;BME280;48761;42.680;23.312;2024-03-23T04:36:23;94853.91;;;5.25;64.96
62697;BME280;48761;42.680;23.312;2024-03-23T04:38:49;94851.50;;;5.56;64.25
62697;BME280;48761;42.680;23.312;2024-03-23T04:41:15;94864.44;;;5.97;63.81
62697;BME280;48761;42.680;23.312;2024-03-23T04:43:41;94857.94;;;6.72;61.79
62697;BME280;48761;42.680;23.312;2024-03-23T04:46:07;94863.06;;;7.08;59.91
62697;BME280;48761;42.680;23.312;2024-03-23T04:48:32;94867.06;;;7.15;60.23
62697;BME280;48761;42.680;23.312;2024-03-23T04:50:58;94872.25;;;7.16;59.54
62697;BME280;48761;42.680;23.312;2024-03-23T04:53:24;94875.22;;;7.26;59.29
62697;BME280;48761;42.680;23.312;2024-03-23T04:55:50;94876.72;;;7.63;58.86
62697;BME280;48761;42.680;23.312;2024-03-23T04:58:16;94864.31;;;7.94;57.14
62697;BME280;48761;42.680;23.312;2024-03-23T05:00:42;94866.66;;;7.99;56.85
62697;BME280;48761;42.680;23.312;2024-03-23T05:03:08;94868.50;;;8.13;56.88
62697;BME280;48761;42.680;23.312;2024-03-23T05:05:34;94861.72;;;8.38;56.66
62697;BME280;48761;42.680;23.312;2024-03-23T05:07:59;94864.72;;;8.17;56.96
62697;BME280;48761;42.680;23.312;2024-03-23T05:10:25;94864.53;;;7.75;57.21
62697;BME280;48761;42.680;23.312;2024-03-23T05:12:51;94862.84;;;8.49;56.44
62697;BME280;48761;42.680;23.312;2024-03-23T05:15:17;94867.38;;;7.25;57.54
62697;BME280;48761;42.680;23.312;2024-03-23T05:17:43;94863.00;;;7.40;58.18
62697;BME280;48761;42.680;23.312;2024-03-23T05:20:09;94869.50;;;7.18;58.41
62697;BME280;48761;42.680;23.312;2024-03-23T05:22:36;94864.81;;;7.70;56.88
62697;BME280;48761;42.680;23.312;2024-03-23T05:25:02;94861.66;;;7.63;57.22
62697;BME280;48761;42.680;23.312;2024-03-23T05:27:28;94856.13;;;8.14;56.26
62697;BME280;48761;42.680;23.312;2024-03-23T05:29:54;94857.63;;;8.33;55.20
62697;BME280;48761;42.680;23.312;2024-03-23T05:32:19;94864.38;;;8.53;54.20
62697;BME280;48761;42.680;23.312;2024-03-23T05:34:45;94857.47;;;7.76;56.08
62697;BME280;48761;42.680;23.312;2024-03-23T05:37:11;94858.97;;;7.80;55.84
62697;BME280;48761;42.680;23.312;2024-03-23T05:39:37;94851.00;;;8.40;55.58
62697;BME280;48761;42.680;23.312;2024-03-23T05:42:03;94855.16;;;8.29;54.45
62697;BME280;48761;42.680;23.312;2024-03-23T05:44:29;94864.38;;;8.68;54.32
62697;BME280;48761;42.680;23.312;2024-03-23T05:46:55;94857.06;;;8.42;54.34
62697;BME280;48761;42.680;23.312;2024-03-23T05:49:21;94865.88;;;8.87;53.21
62697;BME280;48761;42.680;23.312;2024-03-23T05:51:47;94862.31;;;9.15;53.09
62697;BME280;48761;42.680;23.312;2024-03-23T05:54:12;94863.56;;;9.10;53.15
62697;BME280;48761;42.680;23.312;2024-03-23T05:56:38;94863.59;;;8.80;53.31
62697;BME280;48761;42.680;23.312;2024-03-23T05:59:04;94857.19;;;8.70;53.25
62697;BME280;48761;42.680;23.312;2024-03-23T06:01:30;94856.81;;;8.61;53.82
62697;BME280;48761;42.680;23.312;2024-03-23T06:03:56;94857.19;;;8.70;53.62
62697;BME280;48761;42.680;23.312;2024-03-23T06:06:22;94855.00;;;8.77;53.57
62697;BME280;48761;42.680;23.312;2024-03-23T06:08:48;94853.13;;;10.03;49.99
62697;BME280;48761;42.680;23.312;2024-03-23T06:11:13;94853.69;;;10.60;49.44
62697;BME280;48761;42.680;23.312;2024-03-23T06:13:39;94857.34;;;11.59;47.58
62697;BME280;48761;42.680;23.312;2024-03-23T06:16:05;94856.09;;;11.76;46.40
62697;BME280;48761;42.680;23.312;2024-03-23T06:18:31;94848.88;;;11.65;46.36
62697;BME280;48761;42.680;23.312;2024-03-23T06:20:57;94851.47;;;11.79;46.39
62697;BME280;48761;42.680;23.312;2024-03-23T06:23:23;94845.53;;;12.11;45.90
62697;BME280;48761;42.680;23.312;2024-03-23T06:25:49;94840.28;;;12.80;44.60
62697;BME280;48761;42.680;23.312;2024-03-23T06:28:15;94839.94;;;12.50;43.92
62697;BME280;48761;42.680;23.312;2024-03-23T06:30:41;94847.63;;;10.58;47.69
62697;BME280;48761;42.680;23.312;2024-03-23T06:33:06;94852.69;;;11.25;46.97
62697;BME280;48761;42.680;23.312;2024-03-23T06:35:32;94851.97;;;11.10;46.85
62697;BME280;48761;42.680;23.312;2024-03-23T06:37:58;94852.28;;;11.43;46.38
62697;BME280;48761;42.680;23.312;2024-03-23T06:40:24;94850.69;;;10.78;47.19
62697;BME280;48761;42.680;23.312;2024-03-23T06:42:50;94849.72;;;11.54;46.17
62697;BME280;48761;42.680;23.312;2024-03-23T06:45:17;94844.06;;;12.89;43.21
62697;BME280;48761;42.680;23.312;2024-03-23T06:47:42;94847.03;;;13.30;42.38
62697;BME280;48761;42.680;23.312;2024-03-23T06:50:08;94851.91;;;13.02;41.95
62697;BME280;48761;42.680;23.312;2024-03-23T06:52:34;94842.28;;;10.45;47.17
62697;BME280;48761;42.680;23.312;2024-03-23T06:55:00;94856.44;;;12.08;44.55
62697;BME280;48761;42.680;23.312;2024-03-23T06:57:26;94843.00;;;11.73;44.60
62697;BME280;48761;42.680;23.312;2024-03-23T06:59:52;94860.44;;;11.28;46.45
62697;BME280;48761;42.680;23.312;2024-03-23T07:02:18;94847.44;;;11.37;46.20
62697;BME280;48761;42.680;23.312;2024-03-23T07:04:44;94833.75;;;12.50;44.44
62697;BME280;48761;42.680;23.312;2024-03-23T07:07:10;94837.78;;;10.98;46.41
62697;BME280;48761;42.680;23.312;2024-03-23T07:09:36;94838.09;;;13.08;43.61
62697;BME280;48761;42.680;23.312;2024-03-23T07:12:02;94832.66;;;12.41;43.99
62697;BME280;48761;42.680;23.312;2024-03-23T07:14:27;94843.63;;;11.77;45.30
62697;BME280;48761;42.680;23.312;2024-03-23T07:16:53;94828.38;;;13.19;42.48
62697;BME280;48761;42.680;23.312;2024-03-23T07:19:19;94823.72;;;13.32;42.29
62697;BME280;48761;42.680;23.312;2024-03-23T07:21:45;94825.28;;;13.80;40.80
62697;BME280;48761;42.680;23.312;2024-03-23T07:24:11;94829.84;;;13.00;42.50
62697;BME280;48761;42.680;23.312;2024-03-23T07:26:37;94821.88;;;12.77;43.09
62697;BME280;48761;42.680;23.312;2024-03-23T07:29:04;94821.88;;;12.65;43.05
62697;BME280;48761;42.680;23.312;2024-03-23T07:31:30;94813.81;;;12.08;43.94
62697;BME280;48761;42.680;23.312;2024-03-23T07:33:56;94820.53;;;12.25;44.25
62697;BME280;48761;42.680;23.312;2024-03-23T07:36:22;94812.81;;;11.97;44.26
62697;BME280;48761;42.680;23.312;2024-03-23T07:38:48;94810.22;;;12.32;43.93
62697;BME280;48761;42.680;23.312;2024-03-23T07:41:18;94820.53;;;12.94;43.01
62697;BME280;48761;42.680;23.312;2024-03-23T07:43:45;94821.06;;;14.73;39.70
62697;BME280;48761;42.680;23.312;2024-03-23T07:46:12;94818.91;;;13.26;41.49
62697;BME280;48761;42.680;23.312;2024-03-23T07:48:39;94810.78;;;13.05;42.28
62697;BME280;48761;42.680;23.312;2024-03-23T07:51:16;94808.03;;;13.06;41.93
62697;BME280;48761;42.680;23.312;2024-03-23T07:53:43;94809.78;;;14.16;40.27
62697;BME280;48761;42.680;23.312;2024-03-23T07:56:10;94810.22;;;12.89;41.91
62697;BME280;48761;42.680;23.312;2024-03-23T07:58:36;94815.44;;;12.91;42.35
62697;BME280;48761;42.680;23.312;2024-03-23T08:01:10;94807.97;;;13.18;41.51
62697;BME280;48761;42.680;23.312;2024-03-23T08:03:41;94806.47;;;14.03;40.66
62697;BME280;48761;42.680;23.312;2024-03-23T08:06:14;94806.31;;;13.17;40.95
62697;BME280;48761;42.680;23.312;2024-03-23T08:08:42;94802.22;;;14.84;39.44
62697;BME280;48761;42.680;23.312;2024-03-23T08:11:08;94802.22;;;13.78;40.15
62697;BME280;48761;42.680;23.312;2024-03-23T08:13:35;94803.63;;;13.17;41.04
62697;BME280;48761;42.680;23.312;2024-03-23T08:16:02;94801.09;;;13.48;41.10
62697;BME280;48761;42.680;23.312;2024-03-23T08:18:29;94800.25;;;13.48;40.19
62697;BME280;48761;42.680;23.312;2024-03-23T08:21:05;94800.44;;;13.34;40.90
62697;BME280;48761;42.680;23.312;2024-03-23T08:23:32;94781.75;;;14.32;40.11
62697;BME280;48761;42.680;23.312;2024-03-23T08:25:59;94792.06;;;14.46;38.63
62697;BME280;48761;42.680;23.312;2024-03-23T08:28:26;94788.75;;;13.47;39.97
62697;BME280;48761;42.680;23.312;2024-03-23T08:30:53;94784.97;;;13.50;40.12
62697;BME280;48761;42.680;23.312;2024-03-23T08:33:19;94787.03;;;13.46;40.29
62697;BME280;48761;42.680;23.312;2024-03-23T08:35:56;94779.66;;;14.14;39.48
62697;BME280;48761;42.680;23.312;2024-03-23T08:38:23;94786.72;;;13.72;39.96
62697;BME280;48761;42.680;23.312;2024-03-23T08:40:56;94781.25;;;13.74;40.41
62697;BME280;48761;42.680;23.312;2024-03-23T08:43:22;94772.19;;;14.08;39.45
62697;BME280;48761;42.680;23.312;2024-03-23T08:45:48;94775.88;;;15.21;38.53
62697;BME280;48761;42.680;23.312;2024-03-23T08:48:14;94773.63;;;14.75;38.08
62697;BME280;48761;42.680;23.312;2024-03-23T08:50:40;94763.31;;;14.39;38.49
62697;BME280;48761;42.680;23.312;2024-03-23T08:53:06;94764.53;;;14.25;39.39
62697;BME280;48761;42.680;23.312;2024-03-23T08:55:32;94755.72;;;14.34;39.00
62697;BME280;48761;42.680;23.312;2024-03-23T08:57:57;94755.81;;;14.22;38.62
62697;BME280;48761;42.680;23.312;2024-03-23T09:00:23;94754.81;;;14.55;38.63
62697;BME280;48761;42.680;23.312;2024-03-23T09:02:50;94751.50;;;14.73;38.43
62697;BME280;48761;42.680;23.312;2024-03-23T09:05:15;94743.16;;;14.56;37.91
62697;BME280;48761;42.680;23.312;2024-03-23T09:07:41;94749.03;;;13.75;38.99
62697;BME280;48761;42.680;23.312;2024-03-23T09:10:07;94739.84;;;14.11;38.22
62697;BME280;48761;42.680;23.312;2024-03-23T09:12:33;94734.34;;;14.85;38.07
62697;BME280;48761;42.680;23.312;2024-03-23T09:14:59;94735.63;;;14.81;37.68
62697;BME280;48761;42.680;23.312;2024-03-23T09:17:25;94737.00;;;14.75;38.20
62697;BME280;48761;42.680;23.312;2024-03-23T09:19:51;94724.00;;;15.12;37.79
62697;BME280;48761;42.680;23.312;2024-03-23T09:22:17;94719.78;;;15.69;37.10
62697;BME280;48761;42.680;23.312;2024-03-23T09:24:43;94713.16;;;15.63;37.18
62697;BME280;48761;42.680;23.312;2024-03-23T09:27:09;94714.44;;;15.29;37.03
62697;BME280;48761;42.680;23.312;2024-03-23T09:29:34;94704.44;;;15.51;37.89
62697;BME280;48761;42.680;23.312;2024-03-23T09:32:00;94707.66;;;15.45;37.14
62697;BME280;48761;42.680;23.312;2024-03-23T09:34:26;94702.88;;;15.58;37.29
62697;BME280;48761;42.680;23.312;2024-03-23T09:36:52;94694.41;;;15.53;37.15
62697;BME280;48761;42.680;23.312;2024-03-23T09:39:18;94693.00;;;15.69;37.25
62697;BME280;48761;42.680;23.312;2024-03-23T09:41:45;94692.81;;;15.80;36.88
62697;BME280;48761;42.680;23.312;2024-03-23T09:44:11;94685.16;;;15.96;36.66
62697;BME280;48761;42.680;23.312;2024-03-23T09:46:38;94680.84;;;15.85;36.32
62697;BME280;48761;42.680;23.312;2024-03-23T09:49:06;94681.47;;;15.29;37.60
62697;BME280;48761;42.680;23.312;2024-03-23T09:51:32;94664.72;;;15.95;38.74
62697;BME280;48761;42.680;23.312;2024-03-23T09:53:58;94665.53;;;15.47;37.39
62697;BME280;48761;42.680;23.312;2024-03-23T09:56:24;94670.63;;;16.08;36.75
62697;BME280;48761;42.680;23.312;2024-03-23T09:58:50;94669.00;;;15.77;36.35
62697;BME280;48761;42.680;23.312;2024-03-23T10:01:16;94659.63;;;16.01;36.03
62697;BME280;48761;42.680;23.312;2024-03-23T10:03:45;94660.72;;;16.47;36.10
62697;BME280;48761;42.680;23.312;2024-03-23T10:06:11;94659.06;;;16.36;35.05
62697;BME280;48761;42.680;23.312;2024-03-23T10:08:36;94650.75;;;16.39;35.08
62697;BME280;48761;42.680;23.312;2024-03-23T10:11:14;94643.06;;;16.73;35.14
62697;BME280;48761;42.680;23.312;2024-03-23T10:13:41;94639.00;;;16.68;34.98
62697;BME280;48761;42.680;23.312;2024-03-23T10:16:07;94640.91;;;16.58;34.68
62697;BME280;48761;42.680;23.312;2024-03-23T10:18:37;94632.09;;;16.84;34.16
62697;BME280;48761;42.680;23.312;2024-03-23T10:23:33;94613.75;;;17.26;33.85
62697;BME280;48761;42.680;23.312;2024-03-23T10:26:19;94627.22;;;17.79;33.40
62697;BME280;48761;42.680;23.312;2024-03-23T10:29:01;94621.13;;;17.24;33.32
62697;BME280;48761;42.680;23.312;2024-03-23T10:31:30;94611.28;;;17.59;32.59
62697;BME280;48761;42.680;23.312;2024-03-23T10:33:57;94607.03;;;17.75;31.81
62697;BME280;48761;42.680;23.312;2024-03-23T10:36:24;94600.25;;;17.18;32.75
62697;BME280;48761;42.680;23.312;2024-03-23T10:38:50;94597.59;;;16.89;32.14
62697;BME280;48761;42.680;23.312;2024-03-23T10:41:17;94586.69;;;17.09;33.05
62697;BME280;48761;42.680;23.312;2024-03-23T10:43:46;94571.97;;;17.32;32.21
62697;BME280;48761;42.680;23.312;2024-03-23T10:46:12;94577.59;;;17.47;31.73
62697;BME280;48761;42.680;23.312;2024-03-23T10:48:38;94572.03;;;17.40;32.50
62697;BME280;48761;42.680;23.312;2024-03-23T10:51:08;94568.03;;;17.71;38.58
62697;BME280;48761;42.680;23.312;2024-03-23T10:53:34;94557.38;;;17.34;33.13
62697;BME280;48761;42.680;23.312;2024-03-23T10:56:00;94551.59;;;17.21;32.46
62697;BME280;48761;42.680;23.312;2024-03-23T10:58:30;94556.31;;;17.27;32.73
62697;BME280;48761;42.680;23.312;2024-03-23T11:00:57;94541.56;;;17.85;34.32
62697;BME280;48761;42.680;23.312;2024-03-23T11:03:36;94538.53;;;17.79;38.49
62697;BME280;48761;42.680;23.312;2024-03-23T11:06:03;94537.00;;;18.20;39.30
62697;BME280;48761;42.680;23.312;2024-03-23T11:08:37;94527.44;;;18.26;33.67
62697;BME280;48761;42.680;23.312;2024-03-23T11:11:18;94524.94;;;18.24;33.95
62697;BME280;48761;42.680;23.312;2024-03-23T11:13:48;94518.88;;;18.22;39.07
62697;BME280;48761;42.680;23.312;2024-03-23T11:16:23;94514.03;;;18.34;38.87
62697;BME280;48761;42.680;23.312;2024-03-23T11:18:49;94501.09;;;18.63;37.92
62697;BME280;48761;42.680;23.312;2024-03-23T11:21:53;94504.50;;;18.82;36.21
62697;BME280;48761;42.680;23.312;2024-03-23T11:24:20;94500.97;;;18.13;33.23
62697;BME280;48761;42.680;23.312;2024-03-23T11:26:47;94493.66;;;17.18;33.40
62697;BME280;48761;42.680;23.312;2024-03-23T11:29:15;94487.44;;;17.44;37.39
62697;BME280;48761;42.680;23.312;2024-03-23T11:31:51;94494.22;;;17.92;36.52
62697;BME280;48761;42.680;23.312;2024-03-23T11:34:21;94483.69;;;18.15;41.59
62697;BME280;48761;42.680;23.312;2024-03-23T11:36:47;94490.13;;;18.23;35.96
62697;BME280;48761;42.680;23.312;2024-03-23T11:39:17;94478.41;;;18.49;36.87
62697;BME280;48761;42.680;23.312;2024-03-23T11:41:53;94466.09;;;18.38;35.30
62697;BME280;48761;42.680;23.312;2024-03-23T11:44:20;94465.66;;;18.08;32.14
62697;BME280;48761;42.680;23.312;2024-03-23T11:46:47;94453.53;;;17.43;32.48
62697;BME280;48761;42.680;23.312;2024-03-23T11:49:26;94455.91;;;17.55;32.67
62697;BME280;48761;42.680;23.312;2024-03-23T11:51:55;94448.66;;;17.47;32.59
62697;BME280;48761;42.680;23.312;2024-03-23T11:54:25;94439.00;;;17.01;32.43
62697;BME280;48761;42.680;23.312;2024-03-23T11:57:03;94431.31;;;17.06;33.15
62697;BME280;48761;42.680;23.312;2024-03-23T11:59:40;94434.13;;;17.23;32.39
62697;BME280;48761;42.680;23.312;2024-03-23T12:02:10;94431.69;;;17.11;32.49
62697;BME280;48761;42.680;23.312;2024-03-23T12:04:39;94422.75;;;16.84;32.79
62697;BME280;48761;42.680;23.312;2024-03-23T12:07:19;94416.22;;;16.60;33.13
62697;BME280;48761;42.680;23.312;2024-03-23T12:10:01;94414.69;;;16.76;32.86
62697;BME280;48761;42.680;23.312;2024-03-23T12:12:28;94397.44;;;16.87;32.55
62697;BME280;48761;42.680;23.312;2024-03-23T12:15:07;94408.34;;;16.85;32.38
62697;BME280;48761;42.680;23.312;2024-03-23T12:17:34;94401.69;;;16.44;32.24
62697;BME280;48761;42.680;23.312;2024-03-23T12:20:00;94395.72;;;16.32;32.14
62697;BME280;48761;42.680;23.312;2024-03-23T12:22:26;94389.44;;;16.23;32.52
62697;BME280;48761;42.680;23.312;2024-03-23T12:24:52;94380.22;;;16.44;32.69
62697;BME280;48761;42.680;23.312;2024-03-23T12:27:18;94387.41;;;16.62;32.06
62697;BME280;48761;42.680;23.312;2024-03-23T12:29:44;94383.59;;;16.46;32.23
62697;BME280;48761;42.680;23.312;2024-03-23T12:32:10;94387.97;;;16.47;32.27
62697;BME280;48761;42.680;23.312;2024-03-23T12:34:36;94379.94;;;16.47;32.21
62697;BME280;48761;42.680;23.312;2024-03-23T12:37:02;94367.09;;;16.33;32.47
62697;BME280;48761;42.680;23.312;2024-03-23T12:39:28;94366.69;;;16.73;31.95
62697;BME280;48761;42.680;23.312;2024-03-23T12:41:54;94354.56;;;16.68;31.24
62697;BME280;48761;42.680;23.312;2024-03-23T12:44:20;94365.56;;;16.84;30.69
62697;BME280;48761;42.680;23.312;2024-03-23T12:46:46;94358.34;;;16.84;31.07
62697;BME280;48761;42.680;23.312;2024-03-23T12:49:12;94356.44;;;17.03;30.27
62697;BME280;48761;42.680;23.312;2024-03-23T12:51:38;94355.59;;;17.02;30.69
62697;BME280;48761;42.680;23.312;2024-03-23T12:54:04;94346.13;;;17.17;28.05
62697;BME280;48761;42.680;23.312;2024-03-23T12:56:30;94333.78;;;17.32;26.76
62697;BME280;48761;42.680;23.312;2024-03-23T12:58:56;94321.22;;;17.50;26.40
62697;BME280;48761;42.680;23.312;2024-03-23T13:01:26;94323.75;;;17.59;25.80
62697;BME280;48761;42.680;23.312;2024-03-23T13:03:52;94321.94;;;17.68;24.66
62697;BME280;48761;42.680;23.312;2024-03-23T13:06:18;94320.63;;;17.98;24.55
62697;BME280;48761;42.680;23.312;2024-03-23T13:08:45;94325.47;;;17.77;24.52
62697;BME280;48761;42.680;23.312;2024-03-23T13:11:12;94314.72;;;17.61;24.70
62697;BME280;48761;42.680;23.312;2024-03-23T13:13:38;94317.78;;;17.74;25.09
62697;BME280;48761;42.680;23.312;2024-03-23T13:16:04;94310.34;;;17.68;24.98
62697;BME280;48761;42.680;23.312;2024-03-23T13:18:31;94302.63;;;17.73;24.95
62697;BME280;48761;42.680;23.312;2024-03-23T13:20:57;94301.47;;;17.76;24.75
62697;BME280;48761;42.680;23.312;2024-03-23T13:23:24;94308.69;;;17.84;25.59
62697;BME280;48761;42.680;23.312;2024-03-23T13:25:54;94301.66;;;17.74;24.76
62697;BME280;48761;42.680;23.312;2024-03-23T13:28:23;94293.91;;;17.88;24.44
62697;BME280;48761;42.680;23.312;2024-03-23T13:30:53;94290.91;;;17.91;25.04
62697;BME280;48761;42.680;23.312;2024-03-23T13:33:19;94296.28;;;17.99;24.39
62697;BME280;48761;42.680;23.312;2024-03-23T13:35:55;94294.44;;;17.91;24.60
62697;BME280;48761;42.680;23.312;2024-03-23T13:38:21;94278.13;;;18.01;24.83
62697;BME280;48761;42.680;23.312;2024-03-23T13:43:20;94284.69;;;17.99;24.75
62697;BME280;48761;42.680;23.312;2024-03-23T13:45:47;94277.09;;;18.02;24.42
62697;BME280;48761;42.680;23.312;2024-03-23T13:48:15;94276.28;;;17.93;30.70
62697;BME280;48761;42.680;23.312;2024-03-23T13:50:41;94270.22;;;18.33;41.05